Terminal Aerodrome Forecast
Issued by NWS Boston, MA

Home | Current Version | Previous Version | Text Only | Print | Product List | Glossary On
Versions: 1 2 3 4 5 6 7 8 9 10 11 12 13 14 15 16 17 18 19
000
FTUS41 KBOX 201122
TAFBDL
TAF
KBDL 201122Z 2012/2118 32008KT P6SM FEW090
     FM201400 32012G23KT P6SM SKC
     FM202000 32012KT P6SM FEW050
     FM210100 32007KT P6SM FEW250
     FM210800 31005KT P6SM SKC=

USA.gov is the U.S. government's official web portal to all federal, state and local government web resources and services.